Observations for Trim Market St
| Time | AQI | Temp °C | Hum % | Pres Pa | CO μg/m³ | H₂S μg/m³ | NO μg/m³ | NO₂ μg/m³ | O₃ μg/m³ | SO₂ μg/m³ | PM1 μg/m³ | PM2.5 μg/m³ | PM10 μg/m³ |
|---|---|---|---|---|---|---|---|---|---|---|---|---|---|
| Friday 21 August 2026 | |||||||||||||
| 18:57 | 3 | 20.3 | 53 | 56,479 | 0 | 0 | 2.5 | 15.93 | 67.99 | 0 | 0 | 1.81 | 1.99 |
| 18:56 | 3 | 20.3 | 53 | 56,463 | 0 | 0.36 | 2.52 | 28.46 | 59.96 | 0 | 0 | 1.81 | 1.99 |
| 18:55 | 3 | 20.4 | 53 | 56,466 | 0 | 3.29 | 2.28 | 41.91 | 45.32 | 0 | 0 | 1.82 | 2 |
| 18:54 | 3 | 20.5 | 53 | 56,467 | 0 | 0.78 | 1.28 | 33.11 | 64.83 | 0 | 0 | 1.83 | 2.42 |
| 18:53 | 3 | 20.5 | 52 | 56,439 | 0 | 0 | 1.09 | 11.96 | 86.19 | 0 | 0 | 1.84 | 2.03 |
| 18:52 | 3 | 20.6 | 52 | 56,496 | 0 | 0 | 1.06 | 12.27 | 93.32 | 0 | 0 | 1.86 | 2.04 |
| 18:51 | 3 | 20.6 | 52 | 56,617 | 0 | 0 | 1.05 | 13.07 | 77.71 | 0 | 0 | 1.86 | 2.05 |
| 18:50 | 3 | 20.7 | 52 | 56,820 | 0 | 0 | 1.06 | 11.56 | 84.37 | 0 | 0 | 1.87 | 2.06 |
| 18:49 | 3 | 20.7 | 51 | 57,117 | 0 | 0 | 1.07 | 11.55 | 80.95 | 0 | 0 | 1.88 | 2.07 |
| 18:48 | 3 | 20.8 | 51 | 57,580 | 0 | 0 | 1.1 | 11.43 | 75.83 | 0 | 0 | 1.89 | 2.08 |
| 18:43 | 3 | 21.2 | 50 | 59,857 | 0 | 0 | 1.25 | 11.67 | 65.92 | 0 | 0 | 1.93 | 2.31 |
| 18:41 | 3 | 21.3 | 50 | 60,793 | 0 | 0 | 1.91 | 11.61 | 65.74 | 0 | 0 | 1.94 | 2.14 |
| 18:38 | 3 | 21.6 | 50 | 61,577 | 0 | 0 | 1.88 | 17.45 | 57.56 | 0 | 0 | 1.94 | 2.14 |
| 18:35 | 3 | 21.8 | 50 | 62,008 | 0 | 0 | 1.39 | 11.72 | 65.73 | 0 | 0 | 1.95 | 2.14 |
| 18:29 | 3 | 22.1 | 49 | 62,900 | 0 | 0 | 1.7 | 18.15 | 61.53 | 0 | 0 | 2.48 | 2.73 |
| 18:28 | 3 | 22.1 | 49 | 63,019 | 0 | 0 | 1.75 | 18.52 | 60.61 | 0 | 1.43 | 3.51 | 4.53 |
| 18:27 | 3 | 22.1 | 50 | 63,106 | 0 | 0 | 1.86 | 11.79 | 57.84 | 0 | 0 | 1.96 | 2.16 |
| 18:26 | 3 | 22.2 | 50 | 63,209 | 0.12 | 0 | 1.85 | 12.06 | 57.48 | 0 | 0 | 2.47 | 2.71 |
| 18:25 | 3 | 22.2 | 50 | 63,233 | 0.43 | 0 | 1.85 | 12.74 | 59 | 0 | 0 | 2.46 | 2.71 |
| 18:24 | 3 | 22.2 | 50 | 63,268 | 0.38 | 0 | 1.61 | 14.49 | 58.14 | 0 | 1.43 | 5.04 | 6.03 |